Julian, CA (92036)

2:17 AM PDT on July 24, 2017 (GMT -0700)
MPIHSD | | Change Station

Elev 4054 ft 33.05 °N, 116.64 °W | Updated 69 days ago

Partly Cloudy
Partly Cloudy
38.0 °F
Feels Like 33 °F
N
6.0
Wind Variable Wind from SSW
Gusts 12.0 mph

Today
High -- | Low -- °F
--% Chance of Precip.
Yesterday
High -- | Low -- °F
Precip. -- in
Pressure 29.81 in
Visibility -9999.0 miles
Clouds
Windchill 33 °F
Dew Point 37 °F
Humidity 98%
Rainfall 0.00 in
Snow Depth Not available.
5:54 AM 7:51 PM
New Moon, 1% visible
METAR KCZZ 240852Z AUTO 00000KT 21/14 A2993 RMK AO1 SLP094 T02110139 58004
Pressure 29.81 in
Visibility -9999.0 miles
Clouds
Windchill 33 °F
Dew Point 37 °F
Humidity 98%
Rainfall 0.00 in
Snow Depth Not available.
5:54 AM 7:51 PM
New Moon, 1% visible
METAR KCZZ 240852Z AUTO 00000KT 21/14 A2993 RMK AO1 SLP094 T02110139 58004

Get Severe Weather Alerts

Thanks for signing up!

Be on the lookout for a verification email in your inbox.

You'll start receiving the daily forecast at 6 AM.

×

10-Day Weather Forecast

Almanac

Astronomy

Jul. 24, 2017 Rise Set
Actual Time
Civil Twilight
Nautical Twilight
Astronomical Twilight
Moon
Length of Visible Light
Length of Day
Tomorrow will be .
, % of the Moon is Illuminated

Today's Extremes

State Highs State Lows

Community

WunderPhotos

Category 6

Welcome to Category 6. This is the collective home for Weather Underground's featured writeups by Dr. Jeff Masters (right), Bob Henson (left), Chris Burt, and other regular contributors.

Nearby

Air Quality

  Air Quality AQ Index Pollutant
Not available.

Snow Depth

Station Depth Elevation

Earthquake Activity

City Distance Mag. Time & Date
Minimum magnitude displayed is 2.5.

Coastal Water Temperatures

Place Temperature

Stations

Nearby Weather Stations

Station Location Temp. Windchill Dew Point Humidity Wind Precip. Elev Updated Type
                   

Watches & Warnings

There are currently no watches in effect.